sensor_id;sensor_type;location;lat;lon;timestamp;temperature;humidity
4306;DHT22;2166;49.926;8.608;2023-12-07T00:01:02;1.90;66.70
4306;DHT22;2166;49.926;8.608;2023-12-07T00:03:32;1.90;66.50
4306;DHT22;2166;49.926;8.608;2023-12-07T00:06:03;1.90;66.30
4306;DHT22;2166;49.926;8.608;2023-12-07T00:08:31;1.90;66.20
4306;DHT22;2166;49.926;8.608;2023-12-07T00:11:00;1.90;66.10
4306;DHT22;2166;49.926;8.608;2023-12-07T00:13:29;1.90;66.10
4306;DHT22;2166;49.926;8.608;2023-12-07T00:15:58;1.90;66.20
4306;DHT22;2166;49.926;8.608;2023-12-07T00:18:27;1.80;66.20
4306;DHT22;2166;49.926;8.608;2023-12-07T00:20:55;1.80;66.20
4306;DHT22;2166;49.926;8.608;2023-12-07T00:23:25;1.80;66.10
4306;DHT22;2166;49.926;8.608;2023-12-07T00:25:53;1.70;66.10
4306;DHT22;2166;49.926;8.608;2023-12-07T00:28:23;1.70;66.00
4306;DHT22;2166;49.926;8.608;2023-12-07T00:30:51;1.60;66.20
4306;DHT22;2166;49.926;8.608;2023-12-07T00:33:19;1.50;66.20
4306;DHT22;2166;49.926;8.608;2023-12-07T00:35:49;1.50;66.00
4306;DHT22;2166;49.926;8.608;2023-12-07T00:38:17;1.50;65.90
4306;DHT22;2166;49.926;8.608;2023-12-07T00:40:49;1.50;65.90
4306;DHT22;2166;49.926;8.608;2023-12-07T00:43:18;1.50;65.90
4306;DHT22;2166;49.926;8.608;2023-12-07T00:45:47;1.40;65.90
4306;DHT22;2166;49.926;8.608;2023-12-07T00:48:15;1.40;65.90
4306;DHT22;2166;49.926;8.608;2023-12-07T00:50:44;1.30;65.80
4306;DHT22;2166;49.926;8.608;2023-12-07T00:53:15;1.30;65.80
4306;DHT22;2166;49.926;8.608;2023-12-07T00:55:44;1.30;65.80
4306;DHT22;2166;49.926;8.608;2023-12-07T00:58:15;1.30;65.70
4306;DHT22;2166;49.926;8.608;2023-12-07T01:00:44;1.30;65.80
4306;DHT22;2166;49.926;8.608;2023-12-07T01:03:13;1.30;65.80
4306;DHT22;2166;49.926;8.608;2023-12-07T01:05:41;1.30;65.70
4306;DHT22;2166;49.926;8.608;2023-12-07T01:08:10;1.30;65.70
4306;DHT22;2166;49.926;8.608;2023-12-07T01:10:39;1.20;65.80
4306;DHT22;2166;49.926;8.608;2023-12-07T01:13:09;1.20;65.70
4306;DHT22;2166;49.926;8.608;2023-12-07T01:15:40;1.20;65.70
4306;DHT22;2166;49.926;8.608;2023-12-07T01:18:08;1.20;65.80
4306;DHT22;2166;49.926;8.608;2023-12-07T01:20:37;1.20;65.70
4306;DHT22;2166;49.926;8.608;2023-12-07T01:23:06;1.20;65.70
4306;DHT22;2166;49.926;8.608;2023-12-07T01:25:35;1.20;65.70
4306;DHT22;2166;49.926;8.608;2023-12-07T01:28:05;1.30;65.70
4306;DHT22;2166;49.926;8.608;2023-12-07T01:30:34;1.20;65.70
4306;DHT22;2166;49.926;8.608;2023-12-07T01:33:05;1.20;65.80
4306;DHT22;2166;49.926;8.608;2023-12-07T01:35:34;1.10;65.90
4306;DHT22;2166;49.926;8.608;2023-12-07T01:38:03;1.10;65.80
4306;DHT22;2166;49.926;8.608;2023-12-07T01:40:31;1.10;65.90
4306;DHT22;2166;49.926;8.608;2023-12-07T01:43:00;1.00;66.00
4306;DHT22;2166;49.926;8.608;2023-12-07T01:45:28;1.00;65.90
4306;DHT22;2166;49.926;8.608;2023-12-07T01:47:57;1.00;65.80
4306;DHT22;2166;49.926;8.608;2023-12-07T01:50:28;1.00;66.00
4306;DHT22;2166;49.926;8.608;2023-12-07T01:53:01;1.00;65.70
4306;DHT22;2166;49.926;8.608;2023-12-07T01:55:34;1.00;65.70
4306;DHT22;2166;49.926;8.608;2023-12-07T01:58:04;1.00;65.80
4306;DHT22;2166;49.926;8.608;2023-12-07T02:00:34;0.90;65.90
4306;DHT22;2166;49.926;8.608;2023-12-07T02:03:04;0.80;65.90
4306;DHT22;2166;49.926;8.608;2023-12-07T02:05:37;0.80;65.90
4306;DHT22;2166;49.926;8.608;2023-12-07T02:08:06;0.80;65.70
4306;DHT22;2166;49.926;8.608;2023-12-07T02:10:35;0.80;65.70
4306;DHT22;2166;49.926;8.608;2023-12-07T02:13:03;0.80;65.60
4306;DHT22;2166;49.926;8.608;2023-12-07T02:15:32;0.80;65.70
4306;DHT22;2166;49.926;8.608;2023-12-07T02:18:06;0.80;65.70
4306;DHT22;2166;49.926;8.608;2023-12-07T02:20:39;0.80;65.80
4306;DHT22;2166;49.926;8.608;2023-12-07T02:23:14;0.70;65.80
4306;DHT22;2166;49.926;8.608;2023-12-07T02:25:53;0.70;65.80
4306;DHT22;2166;49.926;8.608;2023-12-07T02:28:23;0.70;65.80
4306;DHT22;2166;49.926;8.608;2023-12-07T02:30:51;0.70;65.70
4306;DHT22;2166;49.926;8.608;2023-12-07T02:33:20;0.60;65.80
4306;DHT22;2166;49.926;8.608;2023-12-07T02:35:49;0.60;65.70
4306;DHT22;2166;49.926;8.608;2023-12-07T02:38:18;0.60;65.70
4306;DHT22;2166;49.926;8.608;2023-12-07T02:40:47;0.50;65.70
4306;DHT22;2166;49.926;8.608;2023-12-07T02:43:18;0.50;65.80
4306;DHT22;2166;49.926;8.608;2023-12-07T02:45:48;0.40;65.80
4306;DHT22;2166;49.926;8.608;2023-12-07T02:48:16;0.40;65.80
4306;DHT22;2166;49.926;8.608;2023-12-07T02:50:45;0.40;65.80
4306;DHT22;2166;49.926;8.608;2023-12-07T02:53:14;0.40;65.80
4306;DHT22;2166;49.926;8.608;2023-12-07T02:55:42;0.30;65.90
4306;DHT22;2166;49.926;8.608;2023-12-07T02:58:10;0.20;65.80
4306;DHT22;2166;49.926;8.608;2023-12-07T03:00:40;0.20;65.80
4306;DHT22;2166;49.926;8.608;2023-12-07T03:03:11;0.20;65.80
4306;DHT22;2166;49.926;8.608;2023-12-07T03:05:39;0.10;65.90
4306;DHT22;2166;49.926;8.608;2023-12-07T03:08:08;0.00;66.00
4306;DHT22;2166;49.926;8.608;2023-12-07T03:10:36;-0.10;66.00
4306;DHT22;2166;49.926;8.608;2023-12-07T03:13:05;-0.10;65.90
4306;DHT22;2166;49.926;8.608;2023-12-07T03:15:34;0.00;65.90
4306;DHT22;2166;49.926;8.608;2023-12-07T03:18:02;0.00;65.90
4306;DHT22;2166;49.926;8.608;2023-12-07T03:20:33;0.10;65.80
4306;DHT22;2166;49.926;8.608;2023-12-07T03:23:02;0.10;65.70
4306;DHT22;2166;49.926;8.608;2023-12-07T03:25:32;0.30;65.60
4306;DHT22;2166;49.926;8.608;2023-12-07T03:28:01;0.40;65.60
4306;DHT22;2166;49.926;8.608;2023-12-07T03:30:29;0.40;65.70
4306;DHT22;2166;49.926;8.608;2023-12-07T03:32:58;0.40;65.70
4306;DHT22;2166;49.926;8.608;2023-12-07T03:35:27;0.30;65.80
4306;DHT22;2166;49.926;8.608;2023-12-07T03:37:57;0.30;65.80
4306;DHT22;2166;49.926;8.608;2023-12-07T03:40:25;0.20;65.70
4306;DHT22;2166;49.926;8.608;2023-12-07T03:42:54;0.10;65.70
4306;DHT22;2166;49.926;8.608;2023-12-07T03:45:23;0.00;65.70
4306;DHT22;2166;49.926;8.608;2023-12-07T03:47:52;0.00;65.70
4306;DHT22;2166;49.926;8.608;2023-12-07T03:50:21;0.00;65.80
4306;DHT22;2166;49.926;8.608;2023-12-07T03:52:49;0.00;65.80
4306;DHT22;2166;49.926;8.608;2023-12-07T03:55:19;0.00;65.90
4306;DHT22;2166;49.926;8.608;2023-12-07T03:57:48;0.00;65.90
4306;DHT22;2166;49.926;8.608;2023-12-07T04:00:16;0.00;65.90
4306;DHT22;2166;49.926;8.608;2023-12-07T04:02:44;0.00;65.90
4306;DHT22;2166;49.926;8.608;2023-12-07T04:05:13;0.00;66.00
4306;DHT22;2166;49.926;8.608;2023-12-07T04:07:41;0.00;66.00
4306;DHT22;2166;49.926;8.608;2023-12-07T04:10:10;0.00;66.10
4306;DHT22;2166;49.926;8.608;2023-12-07T04:12:41;0.10;66.10
4306;DHT22;2166;49.926;8.608;2023-12-07T04:15:10;0.10;66.10
4306;DHT22;2166;49.926;8.608;2023-12-07T04:17:42;0.10;66.00
4306;DHT22;2166;49.926;8.608;2023-12-07T04:20:11;0.10;66.00
4306;DHT22;2166;49.926;8.608;2023-12-07T04:22:40;0.10;65.80
4306;DHT22;2166;49.926;8.608;2023-12-07T04:25:09;0.10;65.80
4306;DHT22;2166;49.926;8.608;2023-12-07T04:27:37;0.10;65.90
4306;DHT22;2166;49.926;8.608;2023-12-07T04:30:08;0.10;65.90
4306;DHT22;2166;49.926;8.608;2023-12-07T04:32:37;0.10;65.90
4306;DHT22;2166;49.926;8.608;2023-12-07T04:35:06;0.10;65.90
4306;DHT22;2166;49.926;8.608;2023-12-07T04:37:36;0.10;65.80
4306;DHT22;2166;49.926;8.608;2023-12-07T04:40:06;0.10;65.80
4306;DHT22;2166;49.926;8.608;2023-12-07T04:42:35;0.10;65.80
4306;DHT22;2166;49.926;8.608;2023-12-07T04:45:05;0.10;65.80
4306;DHT22;2166;49.926;8.608;2023-12-07T04:47:34;0.20;65.80
4306;DHT22;2166;49.926;8.608;2023-12-07T04:50:04;0.10;65.80
4306;DHT22;2166;49.926;8.608;2023-12-07T04:52:33;0.10;65.70
4306;DHT22;2166;49.926;8.608;2023-12-07T04:55:03;0.10;65.70
4306;DHT22;2166;49.926;8.608;2023-12-07T04:57:33;0.00;65.70
4306;DHT22;2166;49.926;8.608;2023-12-07T05:00:02;0.00;65.70
4306;DHT22;2166;49.926;8.608;2023-12-07T05:02:34;-0.10;65.70
4306;DHT22;2166;49.926;8.608;2023-12-07T05:05:03;-0.10;65.70
4306;DHT22;2166;49.926;8.608;2023-12-07T05:07:32;0.00;65.80
4306;DHT22;2166;49.926;8.608;2023-12-07T05:10:01;0.10;65.80
4306;DHT22;2166;49.926;8.608;2023-12-07T05:12:29;0.10;65.90
4306;DHT22;2166;49.926;8.608;2023-12-07T05:14:58;0.10;66.00
4306;DHT22;2166;49.926;8.608;2023-12-07T05:17:27;0.00;65.90
4306;DHT22;2166;49.926;8.608;2023-12-07T05:19:57;0.00;65.90
4306;DHT22;2166;49.926;8.608;2023-12-07T05:22:26;0.00;65.80
4306;DHT22;2166;49.926;8.608;2023-12-07T05:24:55;0.10;65.80
4306;DHT22;2166;49.926;8.608;2023-12-07T05:27:23;0.10;65.90
4306;DHT22;2166;49.926;8.608;2023-12-07T05:29:52;0.10;65.80
4306;DHT22;2166;49.926;8.608;2023-12-07T05:32:21;0.10;65.80
4306;DHT22;2166;49.926;8.608;2023-12-07T05:34:54;0.00;65.90
4306;DHT22;2166;49.926;8.608;2023-12-07T05:37:23;0.00;65.90
4306;DHT22;2166;49.926;8.608;2023-12-07T05:39:52;-0.10;65.80
4306;DHT22;2166;49.926;8.608;2023-12-07T05:42:20;-0.10;65.80
4306;DHT22;2166;49.926;8.608;2023-12-07T05:44:50;-0.10;65.70
4306;DHT22;2166;49.926;8.608;2023-12-07T05:47:18;-0.10;65.80
4306;DHT22;2166;49.926;8.608;2023-12-07T05:49:48;-0.10;65.80
4306;DHT22;2166;49.926;8.608;2023-12-07T05:52:16;-0.10;65.70
4306;DHT22;2166;49.926;8.608;2023-12-07T05:54:47;0.00;65.70
4306;DHT22;2166;49.926;8.608;2023-12-07T05:57:16;-0.10;65.70
4306;DHT22;2166;49.926;8.608;2023-12-07T05:59:45;-0.10;65.70
4306;DHT22;2166;49.926;8.608;2023-12-07T06:02:16;-0.10;65.80
4306;DHT22;2166;49.926;8.608;2023-12-07T06:04:44;-0.10;65.90
4306;DHT22;2166;49.926;8.608;2023-12-07T06:07:14;0.00;65.90
4306;DHT22;2166;49.926;8.608;2023-12-07T06:09:42;0.10;65.90
4306;DHT22;2166;49.926;8.608;2023-12-07T06:12:12;0.20;65.90
4306;DHT22;2166;49.926;8.608;2023-12-07T06:14:43;0.30;65.90
4306;DHT22;2166;49.926;8.608;2023-12-07T06:17:11;0.40;65.90
4306;DHT22;2166;49.926;8.608;2023-12-07T06:19:39;0.40;66.00
4306;DHT22;2166;49.926;8.608;2023-12-07T06:22:09;0.40;66.00
4306;DHT22;2166;49.926;8.608;2023-12-07T06:24:41;0.50;66.00
4306;DHT22;2166;49.926;8.608;2023-12-07T06:27:09;0.50;65.90
4306;DHT22;2166;49.926;8.608;2023-12-07T06:29:41;0.50;65.90
4306;DHT22;2166;49.926;8.608;2023-12-07T06:32:09;0.60;65.90
4306;DHT22;2166;49.926;8.608;2023-12-07T06:34:40;0.60;65.90
4306;DHT22;2166;49.926;8.608;2023-12-07T06:37:10;0.60;65.90
4306;DHT22;2166;49.926;8.608;2023-12-07T06:39:39;0.60;65.90
4306;DHT22;2166;49.926;8.608;2023-12-07T06:42:07;0.60;65.90
4306;DHT22;2166;49.926;8.608;2023-12-07T06:44:36;0.70;65.90
4306;DHT22;2166;49.926;8.608;2023-12-07T06:47:06;0.70;65.90
4306;DHT22;2166;49.926;8.608;2023-12-07T06:49:34;0.70;65.90
4306;DHT22;2166;49.926;8.608;2023-12-07T06:52:18;0.80;65.70
4306;DHT22;2166;49.926;8.608;2023-12-07T06:54:47;0.90;65.70
4306;DHT22;2166;49.926;8.608;2023-12-07T06:57:16;1.00;65.80
4306;DHT22;2166;49.926;8.608;2023-12-07T06:59:44;1.00;65.70
4306;DHT22;2166;49.926;8.608;2023-12-07T07:02:17;1.10;65.80
4306;DHT22;2166;49.926;8.608;2023-12-07T07:04:45;1.10;65.70
4306;DHT22;2166;49.926;8.608;2023-12-07T07:07:16;1.10;65.70
4306;DHT22;2166;49.926;8.608;2023-12-07T07:09:44;1.10;65.60
4306;DHT22;2166;49.926;8.608;2023-12-07T07:12:14;1.10;65.60
4306;DHT22;2166;49.926;8.608;2023-12-07T07:14:43;1.10;65.60
4306;DHT22;2166;49.926;8.608;2023-12-07T07:17:12;1.20;65.60
4306;DHT22;2166;49.926;8.608;2023-12-07T07:19:43;1.20;65.60
4306;DHT22;2166;49.926;8.608;2023-12-07T07:22:12;1.20;65.60
4306;DHT22;2166;49.926;8.608;2023-12-07T07:24:42;1.30;65.70
4306;DHT22;2166;49.926;8.608;2023-12-07T07:27:10;1.30;65.60
4306;DHT22;2166;49.926;8.608;2023-12-07T07:29:39;1.40;65.60
4306;DHT22;2166;49.926;8.608;2023-12-07T07:32:07;1.40;65.70
4306;DHT22;2166;49.926;8.608;2023-12-07T07:34:35;1.50;65.70
4306;DHT22;2166;49.926;8.608;2023-12-07T07:37:06;1.50;65.70
4306;DHT22;2166;49.926;8.608;2023-12-07T07:39:35;1.50;65.70
4306;DHT22;2166;49.926;8.608;2023-12-07T07:42:04;1.60;65.70
4306;DHT22;2166;49.926;8.608;2023-12-07T07:44:33;1.60;65.60
4306;DHT22;2166;49.926;8.608;2023-12-07T07:47:01;1.60;65.50
4306;DHT22;2166;49.926;8.608;2023-12-07T07:49:31;1.70;65.50
4306;DHT22;2166;49.926;8.608;2023-12-07T07:51:59;1.80;65.50
4306;DHT22;2166;49.926;8.608;2023-12-07T07:54:29;2.00;65.60
4306;DHT22;2166;49.926;8.608;2023-12-07T07:56:58;2.10;65.70
4306;DHT22;2166;49.926;8.608;2023-12-07T07:59:26;2.20;65.70
4306;DHT22;2166;49.926;8.608;2023-12-07T08:01:54;2.10;65.70
4306;DHT22;2166;49.926;8.608;2023-12-07T08:04:23;2.10;65.60
4306;DHT22;2166;49.926;8.608;2023-12-07T08:06:52;2.20;65.60
4306;DHT22;2166;49.926;8.608;2023-12-07T08:09:21;2.20;65.70
4306;DHT22;2166;49.926;8.608;2023-12-07T08:11:51;2.30;65.60
4306;DHT22;2166;49.926;8.608;2023-12-07T08:14:20;2.40;65.50
4306;DHT22;2166;49.926;8.608;2023-12-07T08:16:49;2.60;65.50
4306;DHT22;2166;49.926;8.608;2023-12-07T08:19:17;2.70;65.60
4306;DHT22;2166;49.926;8.608;2023-12-07T08:21:46;2.70;65.60
4306;DHT22;2166;49.926;8.608;2023-12-07T08:24:14;2.70;65.60
4306;DHT22;2166;49.926;8.608;2023-12-07T08:26:43;2.80;65.50
4306;DHT22;2166;49.926;8.608;2023-12-07T08:29:13;3.10;65.40
4306;DHT22;2166;49.926;8.608;2023-12-07T08:31:41;3.30;65.50
4306;DHT22;2166;49.926;8.608;2023-12-07T08:34:13;3.80;65.60
4306;DHT22;2166;49.926;8.608;2023-12-07T08:36:42;4.70;66.00
4306;DHT22;2166;49.926;8.608;2023-12-07T08:39:11;5.50;66.30
4306;DHT22;2166;49.926;8.608;2023-12-07T08:41:39;6.50;67.10
4306;DHT22;2166;49.926;8.608;2023-12-07T08:44:08;7.10;67.50
4306;DHT22;2166;49.926;8.608;2023-12-07T08:46:39;7.70;66.60
4306;DHT22;2166;49.926;8.608;2023-12-07T08:49:10;8.30;66.30
4306;DHT22;2166;49.926;8.608;2023-12-07T08:51:39;8.30;65.80
4306;DHT22;2166;49.926;8.608;2023-12-07T08:54:28;8.30;65.30
4306;DHT22;2166;49.926;8.608;2023-12-07T08:56:56;8.10;64.20
4306;DHT22;2166;49.926;8.608;2023-12-07T08:59:25;7.70;63.80
4306;DHT22;2166;49.926;8.608;2023-12-07T09:01:55;7.50;64.40
4306;DHT22;2166;49.926;8.608;2023-12-07T09:04:24;7.20;65.40
4306;DHT22;2166;49.926;8.608;2023-12-07T09:06:52;7.00;65.90
4306;DHT22;2166;49.926;8.608;2023-12-07T09:09:21;6.70;66.20
4306;DHT22;2166;49.926;8.608;2023-12-07T09:11:51;6.50;65.50
4306;DHT22;2166;49.926;8.608;2023-12-07T09:14:20;6.40;64.30
4306;DHT22;2166;49.926;8.608;2023-12-07T09:16:48;6.50;63.90
4306;DHT22;2166;49.926;8.608;2023-12-07T09:19:19;6.70;63.70
4306;DHT22;2166;49.926;8.608;2023-12-07T09:21:47;6.80;63.60
4306;DHT22;2166;49.926;8.608;2023-12-07T09:24:17;6.80;63.70
4306;DHT22;2166;49.926;8.608;2023-12-07T09:26:49;6.80;64.10
4306;DHT22;2166;49.926;8.608;2023-12-07T09:29:18;6.80;63.80
4306;DHT22;2166;49.926;8.608;2023-12-07T09:31:47;6.70;64.10
4306;DHT22;2166;49.926;8.608;2023-12-07T09:34:18;6.80;63.90
4306;DHT22;2166;49.926;8.608;2023-12-07T09:36:49;6.90;63.80
4306;DHT22;2166;49.926;8.608;2023-12-07T09:39:18;7.00;63.60
4306;DHT22;2166;49.926;8.608;2023-12-07T09:41:46;7.10;63.70
4306;DHT22;2166;49.926;8.608;2023-12-07T09:44:15;7.10;64.40
4306;DHT22;2166;49.926;8.608;2023-12-07T09:46:44;7.10;64.40
4306;DHT22;2166;49.926;8.608;2023-12-07T09:49:14;7.10;64.20
4306;DHT22;2166;49.926;8.608;2023-12-07T09:51:46;7.10;64.70
4306;DHT22;2166;49.926;8.608;2023-12-07T09:54:15;6.90;66.70
4306;DHT22;2166;49.926;8.608;2023-12-07T09:56:45;6.40;68.60
4306;DHT22;2166;49.926;8.608;2023-12-07T09:59:18;6.10;67.90
4306;DHT22;2166;49.926;8.608;2023-12-07T10:01:48;6.00;66.80
4306;DHT22;2166;49.926;8.608;2023-12-07T10:04:19;5.90;66.10
4306;DHT22;2166;49.926;8.608;2023-12-07T10:06:51;5.70;67.70
4306;DHT22;2166;49.926;8.608;2023-12-07T10:09:22;5.60;65.80
4306;DHT22;2166;49.926;8.608;2023-12-07T10:12:03;5.50;69.90
4306;DHT22;2166;49.926;8.608;2023-12-07T10:14:32;5.20;67.40
4306;DHT22;2166;49.926;8.608;2023-12-07T10:17:01;5.00;69.50
4306;DHT22;2166;49.926;8.608;2023-12-07T10:19:31;5.00;66.20
4306;DHT22;2166;49.926;8.608;2023-12-07T10:22:12;4.90;67.20
4306;DHT22;2166;49.926;8.608;2023-12-07T10:24:41;5.00;65.40
4306;DHT22;2166;49.926;8.608;2023-12-07T10:27:10;5.30;64.50
4306;DHT22;2166;49.926;8.608;2023-12-07T10:29:38;5.30;65.20
4306;DHT22;2166;49.926;8.608;2023-12-07T10:32:10;5.20;67.60
4306;DHT22;2166;49.926;8.608;2023-12-07T10:34:39;5.20;67.30
4306;DHT22;2166;49.926;8.608;2023-12-07T10:37:08;5.20;66.20
4306;DHT22;2166;49.926;8.608;2023-12-07T10:39:37;5.20;65.90
4306;DHT22;2166;49.926;8.608;2023-12-07T10:42:09;5.30;66.70
4306;DHT22;2166;49.926;8.608;2023-12-07T10:44:41;5.40;66.30
4306;DHT22;2166;49.926;8.608;2023-12-07T10:47:11;5.30;68.20
4306;DHT22;2166;49.926;8.608;2023-12-07T10:49:40;5.20;68.70
4306;DHT22;2166;49.926;8.608;2023-12-07T10:52:16;5.10;71.30
4306;DHT22;2166;49.926;8.608;2023-12-07T10:54:57;5.00;69.20
4306;DHT22;2166;49.926;8.608;2023-12-07T10:57:30;4.90;70.00
4306;DHT22;2166;49.926;8.608;2023-12-07T11:00:02;4.90;68.80
4306;DHT22;2166;49.926;8.608;2023-12-07T11:02:34;4.90;68.60
4306;DHT22;2166;49.926;8.608;2023-12-07T11:05:06;5.10;67.10
4306;DHT22;2166;49.926;8.608;2023-12-07T11:07:47;5.20;67.30
4306;DHT22;2166;49.926;8.608;2023-12-07T11:10:21;5.30;67.60
4306;DHT22;2166;49.926;8.608;2023-12-07T11:12:59;5.50;67.50
4306;DHT22;2166;49.926;8.608;2023-12-07T11:15:28;5.60;70.80
4306;DHT22;2166;49.926;8.608;2023-12-07T11:17:57;5.50;72.10
4306;DHT22;2166;49.926;8.608;2023-12-07T11:20:39;5.30;71.90
4306;DHT22;2166;49.926;8.608;2023-12-07T11:23:10;5.30;74.60
4306;DHT22;2166;49.926;8.608;2023-12-07T11:25:38;5.10;72.40
4306;DHT22;2166;49.926;8.608;2023-12-07T11:28:10;4.90;75.30
4306;DHT22;2166;49.926;8.608;2023-12-07T11:30:43;4.90;72.70
4306;DHT22;2166;49.926;8.608;2023-12-07T11:33:12;4.90;72.60
4306;DHT22;2166;49.926;8.608;2023-12-07T11:36:06;4.70;73.50
4306;DHT22;2166;49.926;8.608;2023-12-07T11:38:38;4.50;73.00
4306;DHT22;2166;49.926;8.608;2023-12-07T11:41:07;4.60;72.90
4306;DHT22;2166;49.926;8.608;2023-12-07T11:43:42;4.60;73.20
4306;DHT22;2166;49.926;8.608;2023-12-07T11:46:14;4.70;73.50
4306;DHT22;2166;49.926;8.608;2023-12-07T11:48:47;4.60;75.40
4306;DHT22;2166;49.926;8.608;2023-12-07T11:51:17;4.40;74.50
4306;DHT22;2166;49.926;8.608;2023-12-07T11:53:48;4.40;73.20
4306;DHT22;2166;49.926;8.608;2023-12-07T11:56:18;4.50;73.00
4306;DHT22;2166;49.926;8.608;2023-12-07T11:58:48;4.70;73.40
4306;DHT22;2166;49.926;8.608;2023-12-07T12:01:20;4.90;72.70
4306;DHT22;2166;49.926;8.608;2023-12-07T12:03:48;5.20;73.90
4306;DHT22;2166;49.926;8.608;2023-12-07T12:06:17;5.30;74.90
4306;DHT22;2166;49.926;8.608;2023-12-07T12:08:48;5.40;74.50
4306;DHT22;2166;49.926;8.608;2023-12-07T12:11:17;5.50;75.90
4306;DHT22;2166;49.926;8.608;2023-12-07T12:13:46;5.60;75.50
4306;DHT22;2166;49.926;8.608;2023-12-07T12:16:17;5.60;76.30
4306;DHT22;2166;49.926;8.608;2023-12-07T12:18:46;5.70;76.80
4306;DHT22;2166;49.926;8.608;2023-12-07T12:21:16;5.80;77.80
4306;DHT22;2166;49.926;8.608;2023-12-07T12:23:50;5.80;76.90
4306;DHT22;2166;49.926;8.608;2023-12-07T12:26:19;5.80;76.30
4306;DHT22;2166;49.926;8.608;2023-12-07T12:28:48;5.80;75.90
4306;DHT22;2166;49.926;8.608;2023-12-07T12:31:17;5.80;76.30
4306;DHT22;2166;49.926;8.608;2023-12-07T12:33:50;5.80;77.70
4306;DHT22;2166;49.926;8.608;2023-12-07T12:36:19;5.60;77.50
4306;DHT22;2166;49.926;8.608;2023-12-07T12:38:51;5.60;76.90
4306;DHT22;2166;49.926;8.608;2023-12-07T12:41:21;5.30;76.80
4306;DHT22;2166;49.926;8.608;2023-12-07T12:43:52;5.10;75.40
4306;DHT22;2166;49.926;8.608;2023-12-07T12:46:24;5.00;75.10
4306;DHT22;2166;49.926;8.608;2023-12-07T12:48:55;4.90;74.10
4306;DHT22;2166;49.926;8.608;2023-12-07T12:51:25;5.00;73.00
4306;DHT22;2166;49.926;8.608;2023-12-07T12:53:57;5.00;73.80
4306;DHT22;2166;49.926;8.608;2023-12-07T12:56:27;5.00;73.40
4306;DHT22;2166;49.926;8.608;2023-12-07T12:58:56;5.00;73.40
4306;DHT22;2166;49.926;8.608;2023-12-07T13:01:30;5.10;72.90
4306;DHT22;2166;49.926;8.608;2023-12-07T13:04:01;5.20;73.90
4306;DHT22;2166;49.926;8.608;2023-12-07T13:06:29;5.20;73.50
4306;DHT22;2166;49.926;8.608;2023-12-07T13:09:02;5.30;72.70
4306;DHT22;2166;49.926;8.608;2023-12-07T13:11:30;5.40;72.70
4306;DHT22;2166;49.926;8.608;2023-12-07T13:14:03;5.50;73.10
4306;DHT22;2166;49.926;8.608;2023-12-07T13:16:36;5.60;73.40
4306;DHT22;2166;49.926;8.608;2023-12-07T13:19:06;5.70;74.00
4306;DHT22;2166;49.926;8.608;2023-12-07T13:21:35;5.70;74.50
4306;DHT22;2166;49.926;8.608;2023-12-07T13:24:08;5.70;74.60
4306;DHT22;2166;49.926;8.608;2023-12-07T13:26:40;5.90;74.50
4306;DHT22;2166;49.926;8.608;2023-12-07T13:29:12;6.00;74.50
4306;DHT22;2166;49.926;8.608;2023-12-07T13:31:56;6.10;75.30
4306;DHT22;2166;49.926;8.608;2023-12-07T13:34:25;6.10;76.60
4306;DHT22;2166;49.926;8.608;2023-12-07T13:36:55;6.10;75.50
4306;DHT22;2166;49.926;8.608;2023-12-07T13:39:26;6.10;75.70
4306;DHT22;2166;49.926;8.608;2023-12-07T13:41:58;6.20;75.80
4306;DHT22;2166;49.926;8.608;2023-12-07T13:44:30;6.10;75.90
4306;DHT22;2166;49.926;8.608;2023-12-07T13:47:01;6.10;75.80
4306;DHT22;2166;49.926;8.608;2023-12-07T13:49:31;6.10;75.80
4306;DHT22;2166;49.926;8.608;2023-12-07T13:52:01;6.10;76.00
4306;DHT22;2166;49.926;8.608;2023-12-07T13:54:44;5.90;75.50
4306;DHT22;2166;49.926;8.608;2023-12-07T13:57:20;5.80;75.70
4306;DHT22;2166;49.926;8.608;2023-12-07T13:59:53;5.80;74.70
4306;DHT22;2166;49.926;8.608;2023-12-07T14:02:22;5.90;74.80
4306;DHT22;2166;49.926;8.608;2023-12-07T14:04:50;5.90;75.20
4306;DHT22;2166;49.926;8.608;2023-12-07T14:07:20;5.90;76.10
4306;DHT22;2166;49.926;8.608;2023-12-07T14:09:52;5.90;75.70
4306;DHT22;2166;49.926;8.608;2023-12-07T14:12:25;5.90;75.00
4306;DHT22;2166;49.926;8.608;2023-12-07T14:14:56;5.80;75.90
4306;DHT22;2166;49.926;8.608;2023-12-07T14:17:25;5.70;75.30
4306;DHT22;2166;49.926;8.608;2023-12-07T14:20:04;5.60;74.30
4306;DHT22;2166;49.926;8.608;2023-12-07T14:22:53;5.60;74.30
4306;DHT22;2166;49.926;8.608;2023-12-07T14:25:24;5.60;75.40
4306;DHT22;2166;49.926;8.608;2023-12-07T14:27:53;5.50;74.60
4306;DHT22;2166;49.926;8.608;2023-12-07T14:30:22;5.40;74.40
4306;DHT22;2166;49.926;8.608;2023-12-07T14:32:51;5.50;73.90
4306;DHT22;2166;49.926;8.608;2023-12-07T14:35:21;5.50;74.20
4306;DHT22;2166;49.926;8.608;2023-12-07T14:37:50;5.40;73.90
4306;DHT22;2166;49.926;8.608;2023-12-07T14:40:21;5.30;74.00
4306;DHT22;2166;49.926;8.608;2023-12-07T14:42:51;5.10;73.90
4306;DHT22;2166;49.926;8.608;2023-12-07T14:45:20;4.90;73.10
4306;DHT22;2166;49.926;8.608;2023-12-07T14:47:51;4.70;72.60
4306;DHT22;2166;49.926;8.608;2023-12-07T14:50:20;4.50;71.00
4306;DHT22;2166;49.926;8.608;2023-12-07T14:52:49;4.30;71.30
4306;DHT22;2166;49.926;8.608;2023-12-07T14:55:18;4.10;70.60
4306;DHT22;2166;49.926;8.608;2023-12-07T14:57:46;3.90;70.10
4306;DHT22;2166;49.926;8.608;2023-12-07T15:00:20;3.70;69.60
4306;DHT22;2166;49.926;8.608;2023-12-07T15:02:49;3.50;69.30
4306;DHT22;2166;49.926;8.608;2023-12-07T15:05:18;3.30;68.80
4306;DHT22;2166;49.926;8.608;2023-12-07T15:07:46;3.10;68.30
4306;DHT22;2166;49.926;8.608;2023-12-07T15:10:15;2.90;67.70
4306;DHT22;2166;49.926;8.608;2023-12-07T15:12:46;2.80;67.20
4306;DHT22;2166;49.926;8.608;2023-12-07T15:15:15;2.60;67.10
4306;DHT22;2166;49.926;8.608;2023-12-07T15:17:45;2.50;67.00
4306;DHT22;2166;49.926;8.608;2023-12-07T15:20:15;2.40;66.90
4306;DHT22;2166;49.926;8.608;2023-12-07T15:22:44;2.30;66.40
4306;DHT22;2166;49.926;8.608;2023-12-07T15:25:13;2.20;66.10
4306;DHT22;2166;49.926;8.608;2023-12-07T15:27:43;2.10;65.80
4306;DHT22;2166;49.926;8.608;2023-12-07T15:30:14;2.10;65.40
4306;DHT22;2166;49.926;8.608;2023-12-07T15:32:46;2.00;65.20
4306;DHT22;2166;49.926;8.608;2023-12-07T15:35:16;1.80;65.10
4306;DHT22;2166;49.926;8.608;2023-12-07T15:37:48;1.80;65.10
4306;DHT22;2166;49.926;8.608;2023-12-07T15:40:18;1.60;65.00
4306;DHT22;2166;49.926;8.608;2023-12-07T15:42:47;1.50;64.80
4306;DHT22;2166;49.926;8.608;2023-12-07T15:45:16;1.40;64.80
4306;DHT22;2166;49.926;8.608;2023-12-07T15:47:47;1.40;64.70
4306;DHT22;2166;49.926;8.608;2023-12-07T15:50:16;1.30;64.60
4306;DHT22;2166;49.926;8.608;2023-12-07T15:52:46;1.20;64.70
4306;DHT22;2166;49.926;8.608;2023-12-07T15:55:16;1.20;64.70
4306;DHT22;2166;49.926;8.608;2023-12-07T15:57:45;1.10;64.70
4306;DHT22;2166;49.926;8.608;2023-12-07T16:00:14;1.10;64.70
4306;DHT22;2166;49.926;8.608;2023-12-07T16:02:44;1.00;64.70
4306;DHT22;2166;49.926;8.608;2023-12-07T16:05:16;1.00;64.60
4306;DHT22;2166;49.926;8.608;2023-12-07T16:07:46;1.00;64.70
4306;DHT22;2166;49.926;8.608;2023-12-07T16:10:15;0.90;64.70
4306;DHT22;2166;49.926;8.608;2023-12-07T16:12:44;0.90;64.60
4306;DHT22;2166;49.926;8.608;2023-12-07T16:15:13;0.80;64.60
4306;DHT22;2166;49.926;8.608;2023-12-07T16:17:42;0.80;64.60
4306;DHT22;2166;49.926;8.608;2023-12-07T16:20:12;0.80;64.60
4306;DHT22;2166;49.926;8.608;2023-12-07T16:22:44;0.80;64.60
4306;DHT22;2166;49.926;8.608;2023-12-07T16:25:14;0.80;64.60
4306;DHT22;2166;49.926;8.608;2023-12-07T16:27:49;0.70;64.60
4306;DHT22;2166;49.926;8.608;2023-12-07T16:30:18;0.70;64.60
4306;DHT22;2166;49.926;8.608;2023-12-07T16:32:49;0.70;64.60
4306;DHT22;2166;49.926;8.608;2023-12-07T16:35:18;0.70;64.60